Time;durP1;ratioP1;P1;durP2;ratioP2;P2;SDS_P1;SDS_P2;PMS_P1;PMS_P2;Temp;Humidity;BMP_temperature;BMP_pressure;BME280_temperature;BME280_humidity;BME280_pressure;Samples;Min_cycle;Max_cycle;Signal;HPM_P1;HPM_P2
2022/10/03 00:01:46;;;;;;;9.43;8.73;;;;;;;;;;5136695;27;20402;-71
2022/10/03 00:04:27;;;;;;;9.67;8.77;;;;;;;;;;5136331;27;20458;-70
2022/10/03 00:06:56;;;;;;;11.80;9.70;;;;;;;;;;5118629;27;20474;-73
2022/10/03 00:09:23;;;;;;;9.13;8.43;;;;;;;;;;5136469;27;20410;-72
2022/10/03 00:11:59;;;;;;;10.00;9.10;;;;;;;;;;5136577;27;20445;-72
2022/10/03 00:14:44;;;;;;;9.40;8.70;;;;;;;;;;5136465;27;20876;-71
2022/10/03 00:17:14;;;;;;;9.43;8.60;;;;;;;;;;5118072;27;20497;-72
2022/10/03 00:19:40;;;;;;;12.40;8.90;;;;;;;;;;5136494;27;20416;-70
2022/10/03 00:22:12;;;;;;;8.83;8.03;;;;;;;;;;5136266;27;20413;-72
2022/10/03 00:24:47;;;;;;;9.40;8.70;;;;;;;;;;5136237;27;20416;-71
2022/10/03 00:27:25;;;;;;;9.87;8.90;;;;;;;;;;5136246;27;20468;-71
2022/10/03 00:30:01;;;;;;;9.47;8.60;;;;;;;;;;5136061;27;20401;-71
2022/10/03 00:32:27;;;;;;;9.00;8.20;;;;;;;;;;5118068;27;20827;-71
2022/10/03 00:35:01;;;;;;;8.10;7.43;;;;;;;;;;5136153;27;20420;-70
2022/10/03 00:37:29;;;;;;;8.50;7.70;;;;;;;;;;5136089;27;20406;-70
2022/10/03 00:40:14;;;;;;;10.77;9.33;;;;;;;;;;5136107;27;20426;-71
2022/10/03 00:42:50;;;;;;;8.60;8.00;;;;;;;;;;5136027;27;20456;-71
2022/10/03 00:45:34;;;;;;;9.30;8.50;;;;;;;;;;5135863;27;20462;-71
2022/10/03 00:48:29;;;;;;;9.50;8.80;;;;;;;;;;5135382;27;20418;-71
2022/10/03 00:51:04;;;;;;;8.43;7.83;;;;;;;;;;5062699;27;20432;-71
2022/10/03 00:53:42;;;;;;;8.27;7.63;;;;;;;;;;5135969;27;20411;-71
2022/10/03 00:56:24;;;;;;;7.50;6.73;;;;;;;;;;5135589;27;20992;-71
2022/10/03 00:58:50;;;;;;;13.30;7.90;;;;;;;;;;5135441;27;20409;-71
2022/10/03 01:01:29;;;;;;;8.30;7.60;;;;;;;;;;5135448;27;20411;-71
2022/10/03 01:03:58;;;;;;;8.33;7.63;;;;;;;;;;5135527;27;20513;-71
2022/10/03 01:06:34;;;;;;;8.70;7.97;;;;;;;;;;5135493;27;20822;-70
2022/10/03 01:09:10;;;;;;;6.37;6.00;;;;;;;;;;5135348;27;20420;-71
2022/10/03 01:11:59;;;;;;;6.87;6.53;;;;;;;;;;5135463;27;20397;-70
2022/10/03 01:14:31;;;;;;;6.10;5.60;;;;;;;;;;5135514;27;20397;-71
2022/10/03 01:17:12;;;;;;;6.77;6.40;;;;;;;;;;5135392;27;20397;-71
2022/10/03 01:19:46;;;;;;;7.40;6.80;;;;;;;;;;5135250;27;20418;-70
2022/10/03 01:22:31;;;;;;;8.00;6.70;;;;;;;;;;5135221;27;20401;-71
2022/10/03 01:24:58;;;;;;;8.00;7.23;;;;;;;;;;5134991;27;20407;-70
2022/10/03 01:30:21;;;;;;;7.60;7.20;;;;;;;;;;5135190;27;20416;-70
2022/10/03 01:30:24;;;;;;;8.90;8.03;;;;;;;;;;5134671;27;20405;-69
2022/10/03 01:33:03;;;;;;;7.87;7.20;;;;;;;;;;5135137;27;20405;-70
2022/10/03 01:35:41;;;;;;;12.63;7.47;;;;;;;;;;5135161;27;20411;-70
2022/10/03 01:38:18;;;;;;;9.20;8.40;;;;;;;;;;5135047;27;20489;-70
2022/10/03 01:40:50;;;;;;;8.27;7.67;;;;;;;;;;5135144;27;20397;-70
2022/10/03 01:43:31;;;;;;;10.90;8.97;;;;;;;;;;5116562;27;20408;-70
2022/10/03 01:46:16;;;;;;;9.87;9.17;;;;;;;;;;5134911;27;20457;-70
2022/10/03 01:49:00;;;;;;;10.00;8.70;;;;;;;;;;5134873;27;20413;-69
2022/10/03 01:51:47;;;;;;;10.13;9.33;;;;;;;;;;5134858;27;20403;-70
2022/10/03 01:54:28;;;;;;;11.77;10.87;;;;;;;;;;5134794;27;20440;-71
2022/10/03 01:57:00;;;;;;;10.07;9.30;;;;;;;;;;5134775;27;20741;-70
2022/10/03 01:59:46;;;;;;;13.13;11.40;;;;;;;;;;5134792;27;20405;-71
2022/10/03 02:02:12;;;;;;;15.80;10.73;;;;;;;;;;5134733;27;20428;-71
2022/10/03 02:04:41;;;;;;;13.03;10.87;;;;;;;;;;5134571;27;20951;-71
2022/10/03 02:07:16;;;;;;;16.27;11.97;;;;;;;;;;5134580;27;20548;-71
2022/10/03 02:09:58;;;;;;;13.57;12.33;;;;;;;;;;5134180;27;20404;-71
2022/10/03 02:12:33;;;;;;;14.07;12.70;;;;;;;;;;5134882;27;20415;-71
2022/10/03 02:15:07;;;;;;;14.27;12.07;;;;;;;;;;5134545;27;20400;-71
2022/10/03 02:17:54;;;;;;;15.93;12.70;;;;;;;;;;5134518;27;20412;-71
2022/10/03 02:20:38;;;;;;;15.20;13.70;;;;;;;;;;5134329;27;20412;-71
2022/10/03 02:23:14;;;;;;;19.93;14.37;;;;;;;;;;5134427;28;20411;-72
2022/10/03 02:25:53;;;;;;;13.83;12.63;;;;;;;;;;5134356;28;20459;-71
2022/10/03 02:28:22;;;;;;;20.00;15.40;;;;;;;;;;5116055;28;20425;-71
2022/10/03 02:31:08;;;;;;;15.63;14.03;;;;;;;;;;5134495;28;20473;-71
2022/10/03 02:34:09;;;;;;;16.50;14.80;;;;;;;;;;5134308;28;20507;-71
2022/10/03 02:36:44;;;;;;;16.03;14.30;;;;;;;;;;5034261;28;20470;-71
2022/10/03 02:39:10;;;;;;;17.03;15.30;;;;;;;;;;5104864;28;20903;-71
2022/10/03 02:41:42;;;;;;;27.77;16.37;;;;;;;;;;5134289;28;20440;-71
2022/10/03 02:44:27;;;;;;;17.73;14.47;;;;;;;;;;5115887;28;20421;-70
2022/10/03 02:47:12;;;;;;;17.30;14.97;;;;;;;;;;5115663;28;20482;-71
2022/10/03 02:49:38;;;;;;;17.70;14.23;;;;;;;;;;5134110;28;20443;-70
2022/10/03 02:52:24;;;;;;;16.47;14.60;;;;;;;;;;5134252;28;20400;-70
2022/10/03 02:54:58;;;;;;;16.47;14.60;;;;;;;;;;5092652;28;20500;-70
2022/10/03 02:57:34;;;;;;;16.40;14.57;;;;;;;;;;5134128;28;20558;-71
2022/10/03 03:00:04;;;;;;;15.30;13.83;;;;;;;;;;5115702;28;20410;-70
2022/10/03 03:02:36;;;;;;;17.60;14.53;;;;;;;;;;5134142;28;20403;-71
2022/10/03 03:05:11;;;;;;;16.03;14.33;;;;;;;;;;5133773;28;20867;-71
2022/10/03 03:07:46;;;;;;;18.03;13.30;;;;;;;;;;5115400;28;20926;-70
2022/10/03 03:10:29;;;;;;;13.53;12.10;;;;;;;;;;5134086;28;20439;-70
2022/10/03 03:13:05;;;;;;;17.73;13.70;;;;;;;;;;5115574;28;20427;-71
2022/10/03 03:15:50;;;;;;;12.13;11.13;;;;;;;;;;5133908;28;20410;-71
2022/10/03 03:18:26;;;;;;;15.33;13.20;;;;;;;;;;5133886;28;20419;-70
2022/10/03 03:21:05;;;;;;;14.00;10.90;;;;;;;;;;5137373;27;20395;-70
2022/10/03 03:23:44;;;;;;;12.60;9.90;;;;;;;;;;5137733;27;20414;-71
2022/10/03 03:26:27;;;;;;;13.87;8.80;;;;;;;;;;5137641;27;20464;-71
2022/10/03 03:28:56;;;;;;;11.57;9.33;;;;;;;;;;5137642;27;20412;-71
2022/10/03 03:31:28;;;;;;;8.50;8.00;;;;;;;;;;5137858;27;20399;-71
2022/10/03 03:34:06;;;;;;;8.30;7.70;;;;;;;;;;5137544;27;20407;-71
2022/10/03 03:36:43;;;;;;;8.97;7.00;;;;;;;;;;5137497;27;20396;-69
2022/10/03 03:39:16;;;;;;;8.10;6.50;;;;;;;;;;5137452;27;20436;-71
2022/10/03 03:41:57;;;;;;;7.47;6.50;;;;;;;;;;5137305;27;20407;-70
2022/10/03 03:44:24;;;;;;;7.40;6.90;;;;;;;;;;5137413;27;20881;-70
2022/10/03 03:46:59;;;;;;;8.50;7.70;;;;;;;;;;5137131;27;20458;-70
2022/10/03 03:49:25;;;;;;;7.90;7.17;;;;;;;;;;5118747;27;20407;-71
2022/10/03 03:52:00;;;;;;;7.33;6.80;;;;;;;;;;5137253;27;20803;-71
2022/10/03 03:54:26;;;;;;;10.73;8.13;;;;;;;;;;5137133;27;20435;-71
2022/10/03 03:57:01;;;;;;;9.10;8.23;;;;;;;;;;5137082;27;20415;-70
2022/10/03 03:59:39;;;;;;;8.30;7.60;;;;;;;;;;5118609;27;20430;-71
2022/10/03 04:02:35;;;;;;;8.90;8.00;;;;;;;;;;5137061;27;21002;-71
2022/10/03 04:05:09;;;;;;;8.20;7.50;;;;;;;;;;5119355;27;20474;-71
2022/10/03 04:07:48;;;;;;;9.60;8.63;;;;;;;;;;5136946;27;20412;-71
2022/10/03 04:10:25;;;;;;;10.30;9.27;;;;;;;;;;5136780;27;20399;-69
2022/10/03 04:13:16;;;;;;;10.73;9.67;;;;;;;;;;5136791;27;20878;-70
2022/10/03 04:15:51;;;;;;;11.03;9.37;;;;;;;;;;5118261;27;20430;-69
2022/10/03 04:21:39;;;;;;;13.20;11.90;;;;;;;;;;5136607;27;20394;-71
2022/10/03 04:24:20;;;;;;;12.30;11.00;;;;;;;;;;5136517;27;20911;-70
2022/10/03 04:26:58;;;;;;;13.70;10.80;;;;;;;;;;5136488;27;20834;-71
2022/10/03 04:29:41;;;;;;;13.30;11.47;;;;;;;;;;5136570;27;20883;-70
2022/10/03 04:32:14;;;;;;;15.27;12.73;;;;;;;;;;5135804;27;20969;-70
2022/10/03 04:34:40;;;;;;;17.93;12.70;;;;;;;;;;5136652;27;20463;-69
2022/10/03 04:37:18;;;;;;;18.53;12.60;;;;;;;;;;5136323;27;20412;-71
2022/10/03 04:39:48;;;;;;;14.60;12.80;;;;;;;;;;5136240;27;20403;-70
2022/10/03 04:42:25;;;;;;;13.07;11.87;;;;;;;;;;5136247;27;20868;-71
2022/10/03 04:44:51;;;;;;;13.13;11.80;;;;;;;;;;5117733;27;20423;-70
2022/10/03 04:47:32;;;;;;;17.07;12.73;;;;;;;;;;5118022;27;20479;-70
2022/10/03 04:50:02;;;;;;;13.80;12.03;;;;;;;;;;5136036;27;20932;-70
2022/10/03 04:52:38;;;;;;;16.23;13.03;;;;;;;;;;5136083;27;20404;-69
2022/10/03 04:55:16;;;;;;;13.43;12.13;;;;;;;;;;5117590;27;20415;-70
2022/10/03 04:58:00;;;;;;;13.47;12.07;;;;;;;;;;5136145;27;20475;-70
2022/10/03 05:00:33;;;;;;;15.03;11.93;;;;;;;;;;5135906;27;20412;-71
2022/10/03 05:03:20;;;;;;;16.40;12.87;;;;;;;;;;5135795;27;20427;-70
2022/10/03 05:05:54;;;;;;;19.37;13.90;;;;;;;;;;5135719;27;20827;-70
2022/10/03 05:08:29;;;;;;;17.83;11.60;;;;;;;;;;5135675;27;20411;-69
2022/10/03 05:11:09;;;;;;;17.83;10.93;;;;;;;;;;5135686;27;20456;-70
2022/10/03 05:13:50;;;;;;;14.40;11.73;;;;;;;;;;5135923;27;20383;-71
2022/10/03 05:16:20;;;;;;;18.77;11.40;;;;;;;;;;5135503;27;20961;-70
2022/10/03 05:19:09;;;;;;;11.93;10.13;;;;;;;;;;5135535;27;20415;-71
2022/10/03 05:21:35;;;;;;;12.43;10.80;;;;;;;;;;5134390;27;20430;-71
2022/10/03 05:24:11;;;;;;;15.57;11.50;;;;;;;;;;5135401;27;20412;-70
2022/10/03 05:26:46;;;;;;;13.43;10.80;;;;;;;;;;5135253;27;20486;-70
2022/10/03 05:29:20;;;;;;;18.27;11.93;;;;;;;;;;5116893;27;20456;-71
2022/10/03 05:31:49;;;;;;;14.43;12.90;;;;;;;;;;5135183;27;20487;-69
2022/10/03 05:34:18;;;;;;;14.70;13.10;;;;;;;;;;5135162;27;20902;-71
2022/10/03 05:37:05;;;;;;;21.80;16.67;;;;;;;;;;5135147;27;20486;-71
2022/10/03 05:39:45;;;;;;;20.70;15.90;;;;;;;;;;5135128;27;20403;-71
2022/10/03 05:42:30;;;;;;;22.93;17.57;;;;;;;;;;5134767;27;20438;-70
2022/10/03 05:44:56;;;;;;;46.43;19.83;;;;;;;;;;5134742;27;20418;-71
2022/10/03 05:47:43;;;;;;;40.00;18.43;;;;;;;;;;5134892;27;20471;-71
2022/10/03 05:50:12;;;;;;;29.67;19.87;;;;;;;;;;5134925;27;20407;-70
2022/10/03 05:52:44;;;;;;;56.43;20.80;;;;;;;;;;5134846;27;20494;-71
2022/10/03 05:55:29;;;;;;;37.90;21.90;;;;;;;;;;5134818;27;20463;-71
2022/10/03 05:58:11;;;;;;;28.90;18.53;;;;;;;;;;5116345;27;20489;-71
2022/10/03 06:00:56;;;;;;;26.50;17.57;;;;;;;;;;5134688;27;20415;-71
2022/10/03 06:03:52;;;;;;;29.23;18.00;;;;;;;;;;5134496;27;20418;-71
2022/10/03 06:06:21;;;;;;;31.60;20.10;;;;;;;;;;5134621;27;20470;-67
2022/10/03 06:08:51;;;;;;;31.03;18.97;;;;;;;;;;5116210;27;20491;-67
2022/10/03 06:11:36;;;;;;;52.07;19.20;;;;;;;;;;5134659;27;20403;-68
2022/10/03 06:14:23;;;;;;;27.67;18.73;;;;;;;;;;5134576;27;20399;-68
2022/10/03 06:17:08;;;;;;;30.63;19.70;;;;;;;;;;5134597;27;20835;-69
2022/10/03 06:19:48;;;;;;;31.90;20.50;;;;;;;;;;5115967;27;20422;-68
2022/10/03 06:22:20;;;;;;;34.37;20.63;;;;;;;;;;5115875;28;20421;-68
2022/10/03 06:25:02;;;;;;;30.67;18.53;;;;;;;;;;5134420;27;20407;-68
2022/10/03 06:27:43;;;;;;;34.93;20.13;;;;;;;;;;5134291;28;20503;-68
2022/10/03 06:30:30;;;;;;;28.03;18.80;;;;;;;;;;5134348;28;20388;-70
2022/10/03 06:33:15;;;;;;;27.67;20.37;;;;;;;;;;5134205;28;20498;-70
2022/10/03 06:35:54;;;;;;;25.83;18.07;;;;;;;;;;5134326;28;20494;-68
2022/10/03 06:38:43;;;;;;;32.40;19.40;;;;;;;;;;5134310;28;20928;-70
2022/10/03 06:41:28;;;;;;;24.27;18.53;;;;;;;;;;5134293;28;20407;-70
2022/10/03 06:43:57;;;;;;;23.60;18.33;;;;;;;;;;5134266;28;20406;-69
2022/10/03 06:46:37;;;;;;;33.00;19.70;;;;;;;;;;5134196;28;20463;-69
2022/10/03 06:49:12;;;;;;;23.13;17.60;;;;;;;;;;5134232;28;20450;-69
2022/10/03 06:51:56;;;;;;;22.33;17.90;;;;;;;;;;5134148;28;20394;-71
2022/10/03 06:54:41;;;;;;;22.73;16.20;;;;;;;;;;5135198;27;20407;-71
2022/10/03 06:57:29;;;;;;;22.13;15.60;;;;;;;;;;5138302;27;20440;-71
2022/10/03 07:00:02;;;;;;;21.50;16.13;;;;;;;;;;5119777;27;20522;-70
2022/10/03 07:02:47;;;;;;;17.70;15.20;;;;;;;;;;5120142;27;20411;-70
2022/10/03 07:05:34;;;;;;;21.20;16.00;;;;;;;;;;5137875;27;20467;-70
2022/10/03 07:08:18;;;;;;;20.50;15.27;;;;;;;;;;5138022;27;20756;-70
2022/10/03 07:10:53;;;;;;;20.60;15.80;;;;;;;;;;5138035;27;20463;-70
2022/10/03 07:13:30;;;;;;;20.30;15.77;;;;;;;;;;5119582;27;20858;-70
2022/10/03 07:16:17;;;;;;;16.10;14.20;;;;;;;;;;5119467;27;20910;-70
2022/10/03 07:18:54;;;;;;;15.50;13.13;;;;;;;;;;5137767;27;20455;-69
2022/10/03 07:21:30;;;;;;;19.57;14.20;;;;;;;;;;5137815;27;20391;-69
2022/10/03 07:24:14;;;;;;;22.07;16.20;;;;;;;;;;5137663;27;20450;-69
2022/10/03 07:26:49;;;;;;;33.47;24.93;;;;;;;;;;5137694;27;20468;-70
2022/10/03 07:29:18;;;;;;;24.03;18.63;;;;;;;;;;5137696;27;20410;-69
2022/10/03 07:31:53;;;;;;;15.80;14.10;;;;;;;;;;5119060;27;20941;-70
2022/10/03 07:34:19;;;;;;;18.87;14.37;;;;;;;;;;5137436;27;20474;-69
2022/10/03 07:40:21;;;;;;;16.40;13.23;;;;;;;;;;5094714;27;20418;-69
2022/10/03 07:43:07;;;;;;;13.20;11.77;;;;;;;;;;5118933;27;20412;-69
2022/10/03 07:45:38;;;;;;;14.63;12.40;;;;;;;;;;5137267;27;20869;-69
2022/10/03 07:48:34;;;;;;;18.63;12.60;;;;;;;;;;5118844;27;20464;-69
2022/10/03 07:51:03;;;;;;;14.87;13.17;;;;;;;;;;5137266;27;20407;-69
2022/10/03 07:53:29;;;;;;;17.33;12.70;;;;;;;;;;5137172;27;20403;-69
2022/10/03 07:55:55;;;;;;;17.83;13.17;;;;;;;;;;5118712;27;20853;-70
2022/10/03 07:58:32;;;;;;;15.07;13.37;;;;;;;;;;5137183;27;20447;-69
2022/10/03 08:01:13;;;;;;;12.73;11.50;;;;;;;;;;5137090;27;20472;-71
2022/10/03 08:03:45;;;;;;;49.17;37.07;;;;;;;;;;5136744;27;20472;-69
2022/10/03 08:06:25;;;;;;;26.17;22.87;;;;;;;;;;5135858;27;20540;-70
2022/10/03 08:08:57;;;;;;;32.37;28.87;;;;;;;;;;5136834;27;20468;-69
2022/10/03 08:11:41;;;;;;;13.20;11.50;;;;;;;;;;5118364;27;20481;-68
2022/10/03 08:14:27;;;;;;;11.60;10.50;;;;;;;;;;5136842;27;20403;-69
2022/10/03 08:16:53;;;;;;;10.53;9.70;;;;;;;;;;5118986;27;20433;-70
2022/10/03 08:19:30;;;;;;;11.23;10.03;;;;;;;;;;5118117;27;20942;-70
2022/10/03 08:22:08;;;;;;;9.83;8.60;;;;;;;;;;5136492;27;20416;-70
2022/10/03 08:25:00;;;;;;;10.47;9.27;;;;;;;;;;5136503;27;20466;-69
2022/10/03 08:27:46;;;;;;;9.63;8.90;;;;;;;;;;5136345;27;20466;-69
2022/10/03 08:30:20;;;;;;;9.97;9.07;;;;;;;;;;5094678;27;20427;-70
2022/10/03 08:32:58;;;;;;;10.10;9.30;;;;;;;;;;5136348;27;20491;-69
2022/10/03 08:35:36;;;;;;;11.20;10.00;;;;;;;;;;5136279;27;20416;-69
2022/10/03 08:38:17;;;;;;;11.27;9.80;;;;;;;;;;5117912;27;20431;-70
2022/10/03 08:41:00;;;;;;;7.77;7.27;;;;;;;;;;5136202;27;20418;-69
2022/10/03 08:43:39;;;;;;;10.67;6.17;;;;;;;;;;5136217;27;20494;-70
2022/10/03 08:46:19;;;;;;;10.80;5.93;;;;;;;;;;5117669;27;20875;-70
2022/10/03 08:48:51;;;;;;;6.50;6.20;;;;;;;;;;5136152;27;20893;-70
2022/10/03 08:51:36;;;;;;;5.27;5.10;;;;;;;;;;5136092;27;20417;-70
2022/10/03 08:54:12;;;;;;;6.90;6.40;;;;;;;;;;5136177;27;20406;-68
2022/10/03 08:56:44;;;;;;;6.20;5.60;;;;;;;;;;5117491;27;20492;-69
2022/10/03 08:59:11;;;;;;;5.13;4.87;;;;;;;;;;5135886;27;20420;-69
2022/10/03 09:01:36;;;;;;;5.83;5.53;;;;;;;;;;5135792;27;20911;-69
2022/10/03 09:04:06;;;;;;;4.93;4.73;;;;;;;;;;5135578;27;20504;-70
2022/10/03 09:06:50;;;;;;;4.73;4.43;;;;;;;;;;5117389;27;20508;-70
2022/10/03 09:09:22;;;;;;;4.47;4.17;;;;;;;;;;5135712;27;20409;-69
2022/10/03 09:11:56;;;;;;;5.80;5.40;;;;;;;;;;5135627;27;20868;-68
2022/10/03 09:14:22;;;;;;;5.27;4.97;;;;;;;;;;5135530;27;20429;-68
2022/10/03 09:16:51;;;;;;;11.20;4.90;;;;;;;;;;5135456;27;20433;-68
2022/10/03 09:19:23;;;;;;;4.87;4.67;;;;;;;;;;5135501;27;20497;-68
2022/10/03 09:22:02;;;;;;;4.80;4.40;;;;;;;;;;5135468;27;20424;-68
2022/10/03 09:24:47;;;;;;;4.40;4.10;;;;;;;;;;5135511;27;20476;-68
2022/10/03 09:27:25;;;;;;;7.13;4.30;;;;;;;;;;5135313;27;20976;-68
2022/10/03 09:29:58;;;;;;;4.20;4.10;;;;;;;;;;5135286;27;20405;-68
2022/10/03 09:32:34;;;;;;;6.40;3.30;;;;;;;;;;5135235;27;20422;-68
2022/10/03 09:35:18;;;;;;;3.93;3.50;;;;;;;;;;5135130;27;20418;-68
2022/10/03 09:38:03;;;;;;;3.00;3.00;;;;;;;;;;5135083;27;20400;-68
2022/10/03 09:40:55;;;;;;;3.90;3.67;;;;;;;;;;5135019;27;20490;-68
2022/10/03 09:43:21;;;;;;;3.20;3.10;;;;;;;;;;5135052;27;20451;-68
2022/10/03 09:45:58;;;;;;;3.27;3.03;;;;;;;;;;5134957;27;20548;-68
2022/10/03 09:48:43;;;;;;;4.10;3.80;;;;;;;;;;5134839;27;20421;-68
2022/10/03 09:51:21;;;;;;;2.43;2.30;;;;;;;;;;5116522;27;20424;-68
2022/10/03 09:53:58;;;;;;;2.67;2.57;;;;;;;;;;5134785;27;20398;-68
2022/10/03 09:56:24;;;;;;;2.83;2.73;;;;;;;;;;5116363;27;20431;-68
2022/10/03 09:59:01;;;;;;;2.80;2.70;;;;;;;;;;5134786;27;20406;-68
2022/10/03 10:01:45;;;;;;;2.83;2.70;;;;;;;;;;5134744;27;20888;-68
2022/10/03 10:04:28;;;;;;;2.87;2.67;;;;;;;;;;5134480;27;20595;-68
2022/10/03 10:06:59;;;;;;;5.40;5.00;;;;;;;;;;5134504;27;20473;-68
2022/10/03 10:09:38;;;;;;;3.20;3.10;;;;;;;;;;5134584;27;20408;-68
2022/10/03 10:12:04;;;;;;;11.43;6.40;;;;;;;;;;5134514;27;20445;-68
2022/10/03 10:14:42;;;;;;;2.80;2.50;;;;;;;;;;5134567;27;20397;-68
2022/10/03 10:17:27;;;;;;;4.07;3.87;;;;;;;;;;5135131;27;20403;-68
2022/10/03 10:20:10;;;;;;;3.30;3.20;;;;;;;;;;5134482;27;20423;-68
2022/10/03 10:23:03;;;;;;;1.90;1.90;;;;;;;;;;5134443;27;20751;-68
2022/10/03 10:25:35;;;;;;;2.53;2.43;;;;;;;;;;5134326;27;20400;-68
2022/10/03 10:28:11;;;;;;;2.20;2.20;;;;;;;;;;5134320;27;20454;-69
2022/10/03 10:30:56;;;;;;;2.53;2.43;;;;;;;;;;5134053;27;20398;-69
2022/10/03 10:33:28;;;;;;;2.53;2.33;;;;;;;;;;5134384;28;20457;-69
2022/10/03 10:36:00;;;;;;;2.30;1.60;;;;;;;;;;5134418;28;20927;-69
2022/10/03 10:38:38;;;;;;;3.10;1.93;;;;;;;;;;5134383;28;20494;-69
2022/10/03 10:41:04;;;;;;;1.70;1.60;;;;;;;;;;5134331;28;20405;-69
2022/10/03 10:43:46;;;;;;;1.90;1.80;;;;;;;;;;5115902;28;20427;-69
2022/10/03 10:46:12;;;;;;;1.67;1.67;;;;;;;;;;5134210;28;20211;-69
2022/10/03 10:48:41;;;;;;;1.73;1.70;;;;;;;;;;5134102;28;20459;-69
2022/10/03 10:51:21;;;;;;;1.43;1.43;;;;;;;;;;5134333;28;20180;-70
2022/10/03 10:54:06;;;;;;;3.33;2.20;;;;;;;;;;5134221;28;20896;-69
2022/10/03 10:56:51;;;;;;;4.57;2.90;;;;;;;;;;5134114;28;20469;-69
2022/10/03 10:59:35;;;;;;;3.53;2.60;;;;;;;;;;5134160;28;20406;-69
2022/10/03 11:02:32;;;;;;;2.93;2.27;;;;;;;;;;5134086;28;20394;-69
2022/10/03 11:05:12;;;;;;;1.80;1.70;;;;;;;;;;5115447;28;20455;-69
2022/10/03 11:07:47;;;;;;;2.83;2.73;;;;;;;;;;5133995;28;20516;-70
2022/10/03 11:10:16;;;;;;;2.43;2.23;;;;;;;;;;5133911;28;20405;-69
2022/10/03 11:12:57;;;;;;;4.93;2.50;;;;;;;;;;5133940;28;20482;-69
2022/10/03 11:15:42;;;;;;;3.43;2.57;;;;;;;;;;5133911;28;20391;-69
2022/10/03 11:18:14;;;;;;;3.20;2.57;;;;;;;;;;5133716;28;20410;-68
2022/10/03 11:20:59;;;;;;;1.93;1.93;;;;;;;;;;5133890;28;20802;-69
2022/10/03 11:23:45;;;;;;;2.97;2.63;;;;;;;;;;5115220;28;20464;-69
2022/10/03 11:26:30;;;;;;;3.00;2.90;;;;;;;;;;5133822;28;20814;-69
2022/10/03 11:29:24;;;;;;;2.83;2.70;;;;;;;;;;5133843;28;20437;-69
2022/10/03 11:32:09;;;;;;;3.70;3.03;;;;;;;;;;5115551;28;20410;-69
2022/10/03 11:34:38;;;;;;;3.00;2.90;;;;;;;;;;5133727;28;20897;-69
2022/10/03 11:37:04;;;;;;;2.67;2.67;;;;;;;;;;5115364;28;20805;-68
2022/10/03 11:39:33;;;;;;;4.97;4.57;;;;;;;;;;5133730;28;20739;-69
2022/10/03 11:41:59;;;;;;;3.17;2.97;;;;;;;;;;5135565;27;20425;-69
2022/10/03 11:44:28;;;;;;;7.80;3.23;;;;;;;;;;5118939;27;20414;-69
2022/10/03 11:47:12;;;;;;;2.50;2.40;;;;;;;;;;5137226;27;20536;-69
2022/10/03 11:50:05;;;;;;;5.77;2.77;;;;;;;;;;5137276;27;20426;-69
2022/10/03 11:52:48;;;;;;;2.93;2.83;;;;;;;;;;5137247;27;20810;-69
2022/10/03 11:55:19;;;;;;;2.67;2.57;;;;;;;;;;5137175;27;20440;-69
2022/10/03 11:57:51;;;;;;;2.47;2.37;;;;;;;;;;5137072;27;20409;-68
2022/10/03 12:00:22;;;;;;;4.40;2.90;;;;;;;;;;5137086;27;20485;-69
2022/10/03 12:03:01;;;;;;;3.27;3.00;;;;;;;;;;5137048;27;20482;-69
2022/10/03 12:05:37;;;;;;;2.93;2.80;;;;;;;;;;5136713;27;20824;-69
2022/10/03 12:11:08;;;;;;;3.30;3.10;;;;;;;;;;5136947;27;20455;-69
2022/10/03 12:13:40;;;;;;;3.40;3.20;;;;;;;;;;5136828;27;20775;-68
2022/10/03 12:16:11;;;;;;;3.53;3.23;;;;;;;;;;5136707;27;20463;-68
2022/10/03 12:18:43;;;;;;;3.70;3.50;;;;;;;;;;5136797;27;20816;-69
2022/10/03 12:21:13;;;;;;;4.13;3.83;;;;;;;;;;5136708;27;20734;-69
2022/10/03 12:24:02;;;;;;;3.10;2.90;;;;;;;;;;5136582;27;20425;-68
2022/10/03 12:26:48;;;;;;;3.43;3.30;;;;;;;;;;5136557;27;20449;-68
2022/10/03 12:29:15;;;;;;;3.63;3.53;;;;;;;;;;5118403;27;20464;-68
2022/10/03 12:31:45;;;;;;;4.30;4.03;;;;;;;;;;5118073;27;20420;-69
2022/10/03 12:34:31;;;;;;;7.07;3.37;;;;;;;;;;5136367;27;20415;-69
2022/10/03 12:37:09;;;;;;;3.90;3.70;;;;;;;;;;5122298;27;20923;-69
2022/10/03 12:39:38;;;;;;;4.20;3.90;;;;;;;;;;5136325;27;20407;-69
2022/10/03 12:42:13;;;;;;;7.23;4.07;;;;;;;;;;5136299;27;20410;-68
2022/10/03 12:44:58;;;;;;;4.07;3.73;;;;;;;;;;5136223;27;20399;-69
2022/10/03 12:47:31;;;;;;;4.43;4.00;;;;;;;;;;5136086;27;20463;-68
2022/10/03 12:50:16;;;;;;;4.80;4.50;;;;;;;;;;5136063;27;20415;-69
2022/10/03 12:52:48;;;;;;;4.87;4.50;;;;;;;;;;5135608;27;20406;-68
2022/10/03 12:55:20;;;;;;;4.43;4.23;;;;;;;;;;5117524;27;20454;-68
2022/10/03 12:57:46;;;;;;;5.37;3.90;;;;;;;;;;5117473;27;20482;-68
2022/10/03 13:00:14;;;;;;;3.90;3.70;;;;;;;;;;5135930;27;20787;-68
2022/10/03 13:02:46;;;;;;;4.37;4.07;;;;;;;;;;5135885;27;20555;-69
2022/10/03 13:05:28;;;;;;;5.00;4.40;;;;;;;;;;5135607;27;20463;-69
2022/10/03 13:07:56;;;;;;;9.30;4.87;;;;;;;;;;5135639;27;20778;-68
2022/10/03 13:10:30;;;;;;;4.37;4.00;;;;;;;;;;5117260;27;20482;-69
2022/10/03 13:13:04;;;;;;;5.60;5.10;;;;;;;;;;5135640;27;20852;-68
2022/10/03 13:15:43;;;;;;;4.97;4.43;;;;;;;;;;5135571;27;20417;-68
2022/10/03 13:18:27;;;;;;;5.23;4.73;;;;;;;;;;5135388;27;20410;-68
2022/10/03 13:21:19;;;;;;;7.70;4.97;;;;;;;;;;5135463;27;20493;-68
2022/10/03 13:23:53;;;;;;;5.33;4.83;;;;;;;;;;5104025;27;20470;-68
2022/10/03 13:26:22;;;;;;;6.43;5.67;;;;;;;;;;5116846;27;20459;-69
2022/10/03 13:28:54;;;;;;;6.50;6.00;;;;;;;;;;5135291;27;20414;-69
2022/10/03 13:31:23;;;;;;;6.30;5.10;;;;;;;;;;5135264;27;20490;-69
2022/10/03 13:33:51;;;;;;;5.43;5.00;;;;;;;;;;5135215;27;20445;-68
2022/10/03 13:36:34;;;;;;;5.60;5.20;;;;;;;;;;5116801;27;20490;-68
2022/10/03 13:39:35;;;;;;;4.60;4.30;;;;;;;;;;5135150;27;20901;-69
2022/10/03 13:42:01;;;;;;;7.63;5.10;;;;;;;;;;5068140;28;20977;-68
2022/10/03 13:44:27;;;;;;;8.37;7.77;;;;;;;;;;5118395;27;20438;-69
2022/10/03 13:47:17;;;;;;;7.97;6.20;;;;;;;;;;5116477;27;20845;-68
2022/10/03 13:49:57;;;;;;;5.00;4.60;;;;;;;;;;5112916;27;20426;-69
2022/10/03 13:52:23;;;;;;;4.90;4.50;;;;;;;;;;5134940;27;20410;-69
2022/10/03 13:55:09;;;;;;;4.90;4.50;;;;;;;;;;5134905;27;20905;-68
2022/10/03 13:57:38;;;;;;;7.30;4.83;;;;;;;;;;5134806;27;20467;-69
2022/10/03 14:00:09;;;;;;;5.03;4.63;;;;;;;;;;5116665;27;20405;-68
2022/10/03 14:02:54;;;;;;;7.20;5.70;;;;;;;;;;5134877;27;20501;-68
2022/10/03 14:05:38;;;;;;;5.23;4.93;;;;;;;;;;5133751;27;20470;-68
2022/10/03 14:08:23;;;;;;;5.90;5.40;;;;;;;;;;5134544;27;20436;-69
2022/10/03 14:11:21;;;;;;;8.17;7.40;;;;;;;;;;5134585;27;20401;-68
2022/10/03 14:13:51;;;;;;;6.53;5.90;;;;;;;;;;5089371;27;20941;-69
2022/10/03 14:16:20;;;;;;;6.57;4.47;;;;;;;;;;5134457;27;20437;-69
2022/10/03 14:18:52;;;;;;;5.10;4.80;;;;;;;;;;5116066;27;20421;-69
2022/10/03 14:21:36;;;;;;;7.57;5.97;;;;;;;;;;5134450;27;20870;-69
2022/10/03 14:24:09;;;;;;;7.33;5.77;;;;;;;;;;5134753;27;20418;-68
2022/10/03 14:26:43;;;;;;;8.93;5.33;;;;;;;;;;5115766;27;20979;-69
2022/10/03 14:29:32;;;;;;;5.70;5.13;;;;;;;;;;5134343;28;20497;-69
2022/10/03 14:32:02;;;;;;;4.97;4.57;;;;;;;;;;5133828;28;20425;-69
2022/10/03 14:34:37;;;;;;;7.30;5.47;;;;;;;;;;5134299;28;20544;-68
2022/10/03 14:37:15;;;;;;;5.30;5.00;;;;;;;;;;5115900;28;20898;-68
2022/10/03 14:40:04;;;;;;;7.47;6.43;;;;;;;;;;5115899;28;20405;-69
2022/10/03 14:42:42;;;;;;;5.33;4.90;;;;;;;;;;5134339;28;20408;-69
2022/10/03 14:45:11;;;;;;;5.80;5.50;;;;;;;;;;5134297;28;20416;-68
2022/10/03 14:47:39;;;;;;;11.70;6.53;;;;;;;;;;5134146;28;20511;-68
2022/10/03 14:50:06;;;;;;;10.43;6.47;;;;;;;;;;5134234;28;20420;-68
2022/10/03 14:52:46;;;;;;;9.83;5.43;;;;;;;;;;5134191;28;20409;-69
2022/10/03 14:55:14;;;;;;;7.20;6.10;;;;;;;;;;5115575;28;20469;-69
2022/10/03 14:57:44;;;;;;;9.40;6.27;;;;;;;;;;5134080;28;20401;-68
2022/10/03 15:00:22;;;;;;;6.23;5.80;;;;;;;;;;5134097;28;20423;-70
2022/10/03 15:02:49;;;;;;;13.37;9.30;;;;;;;;;;5134093;28;20400;-70
2022/10/03 15:05:22;;;;;;;10.40;7.00;;;;;;;;;;5133876;28;20469;-69
2022/10/03 15:07:49;;;;;;;16.63;6.10;;;;;;;;;;5133834;28;20467;-69
2022/10/03 15:10:22;;;;;;;6.10;5.20;;;;;;;;;;5134054;28;20402;-70
2022/10/03 15:12:51;;;;;;;5.33;4.83;;;;;;;;;;5133775;28;20397;-73
2022/10/03 15:15:25;;;;;;;6.63;5.50;;;;;;;;;;5116421;27;20781;-71
2022/10/03 15:17:53;;;;;;;9.50;5.83;;;;;;;;;;5137894;27;20460;-71
2022/10/03 15:20:30;;;;;;;5.93;5.30;;;;;;;;;;5137854;27;20417;-71
2022/10/03 15:22:59;;;;;;;5.57;5.03;;;;;;;;;;5116163;27;20423;-73
2022/10/03 15:25:28;;;;;;;6.93;5.40;;;;;;;;;;5134021;27;20421;-72
2022/10/03 15:27:55;;;;;;;7.47;4.20;;;;;;;;;;5134522;27;20529;-71
2022/10/03 15:30:24;;;;;;;6.07;4.60;;;;;;;;;;5116223;27;20428;-71
2022/10/03 15:32:51;;;;;;;5.10;4.80;;;;;;;;;;5134564;27;20420;-71
2022/10/03 15:35:19;;;;;;;8.30;5.60;;;;;;;;;;5134375;27;20930;-71
2022/10/03 15:37:46;;;;;;;8.03;5.50;;;;;;;;;;5134536;27;21099;-72
2022/10/03 15:40:32;;;;;;;7.00;5.60;;;;;;;;;;5116187;27;20494;-73